Time;durP1;ratioP1;P1;durP2;ratioP2;P2;SDS_P1;SDS_P2;PMS_P1;PMS_P2;Temp;Humidity;BMP_temperature;BMP_pressure;BME280_temperature;BME280_humidity;BME280_pressure;Samples;Min_cycle;Max_cycle;Signal;HPM_P1;HPM_P2
2023/09/16 00:01:58;;;;;;;866.92;786.10;;;13.40;99.90;;;;;;4912753;29;20131;-87
2023/09/16 00:04:26;;;;;;;861.22;782.72;;;13.40;99.90;;;;;;4896863;29;20512;-87
2023/09/16 00:06:52;;;;;;;875.95;794.55;;;13.30;99.90;;;;;;4911571;29;20499;-87
2023/09/16 00:09:28;;;;;;;908.67;822.10;;;13.40;99.90;;;;;;4895543;29;20046;-88
2023/09/16 00:11:56;;;;;;;869.03;791.35;;;13.20;99.90;;;;;;4897291;29;20048;-88
2023/09/16 00:14:25;;;;;;;888.38;806.72;;;13.30;99.90;;;;;;4898007;29;20142;-88
2023/09/16 00:16:52;;;;;;;931.13;842.90;;;13.20;99.90;;;;;;4912754;29;20054;-87
2023/09/16 00:19:23;;;;;;;903.03;819.28;;;13.10;99.90;;;;;;4898168;29;20040;-87
2023/09/16 00:21:49;;;;;;;888.00;808.92;;;13.20;99.90;;;;;;4897858;29;20506;-88
2023/09/16 00:24:16;;;;;;;894.92;812.97;;;13.20;99.90;;;;;;4913575;29;20131;-87
2023/09/16 00:26:51;;;;;;;;;;;;;;;;;;;;;
2023/09/16 00:29:30;;;;;;;907.03;824.20;;;13.20;99.90;;;;;;4913434;29;20475;-87
2023/09/16 00:31:56;;;;;;;946.63;855.67;;;13.10;99.90;;;;;;4897177;29;20140;-88
2023/09/16 00:34:24;;;;;;;958.88;866.60;;;13.10;99.90;;;;;;4897946;29;20139;-87
2023/09/16 00:37:04;;;;;;;950.63;860.85;;;13.10;99.90;;;;;;4913269;29;20040;-87
2023/09/16 00:39:32;;;;;;;956.42;864.70;;;13.10;99.90;;;;;;4913505;29;20044;-87
2023/09/16 00:41:57;;;;;;;920.53;834.05;;;13.00;99.90;;;;;;4897527;29;20051;-87
2023/09/16 00:44:33;;;;;;;937.65;849.40;;;13.00;99.90;;;;;;4915471;29;20094;-87
2023/09/16 00:47:23;;;;;;;955.47;863.72;;;13.00;99.90;;;;;;4912822;29;20400;-87
2023/09/16 00:50:04;;;;;;;941.05;852.38;;;12.90;99.90;;;;;;4911698;29;20082;-88
2023/09/16 00:52:51;;;;;;;917.72;831.20;;;12.90;99.90;;;;;;4895550;29;20051;-88
2023/09/16 00:55:23;;;;;;;965.15;871.05;;;12.90;99.90;;;;;;4896635;29;20044;-87
2023/09/16 00:58:13;;;;;;;917.55;832.00;;;12.70;99.90;;;;;;4896747;29;20469;-87
2023/09/16 01:00:53;;;;;;;967.08;870.38;;;12.80;99.90;;;;;;4886146;23;20443;-87
2023/09/16 01:03:58;;;;;;;976.63;882.38;;;12.80;99.90;;;;;;4895501;29;20048;-87
2023/09/16 01:07:06;;;;;;;949.50;859.13;;;12.80;99.90;;;;;;4834273;29;20082;-87
2023/09/16 01:10:02;;;;;;;;;;;;;;;;;;;;;
2023/09/16 01:15:19;;;;;;;;;;;;;;;;;;;;;
2023/09/16 01:18:27;;;;;;;952.08;858.92;;;12.70;99.90;;;;;;4911589;29;20056;-87
2023/09/16 01:20:55;;;;;;;906.95;823.22;;;12.60;99.90;;;;;;4895257;29;20118;-87
2023/09/16 01:23:21;;;;;;;934.47;845.95;;;12.60;99.90;;;;;;4896362;29;20044;-87
2023/09/16 01:26:02;;;;;;;;;;;;;;;;;;;;;
2023/09/16 01:28:43;;;;;;;920.05;832.40;;;12.50;99.90;;;;;;4911075;29;20258;-88
2023/09/16 01:31:13;;;;;;;903.75;820.72;;;12.50;99.90;;;;;;4899623;29;20047;-87
2023/09/16 01:33:53;;;;;;;905.58;821.28;;;12.50;99.90;;;;;;4894706;29;20052;-87
2023/09/16 01:36:55;;;;;;;;;;;;;;;;;;;;;
2023/09/16 01:39:35;;;;;;;;;;;12.50;99.90;;;;;;4912292;29;20056;-87
2023/09/16 01:42:22;;;;;;;978.83;878.25;;;12.40;99.90;;;;;;4894135;29;19982;-88
2023/09/16 01:45:11;;;;;;;;;;;;;;;;;;;;;
2023/09/16 01:48:01;;;;;;;972.15;877.08;;;12.40;99.90;;;;;;4890735;29;20158;-88
2023/09/16 01:50:30;;;;;;;970.72;875.13;;;12.40;99.90;;;;;;4895634;29;20536;-87
2023/09/16 01:53:02;;;;;;;987.83;889.13;;;12.40;99.90;;;;;;4895419;29;20785;-88
2023/09/16 01:56:03;;;;;;;;;;;;;;;;;;;;;
2023/09/16 01:58:59;;;;;;;967.15;873.50;;;12.30;99.90;;;;;;4910397;29;20044;-87
2023/09/16 02:01:38;;;;;;;;;;;;;;;;;;;;;
2023/09/16 02:04:17;;;;;;;1009.22;905.35;;;12.30;99.90;;;;;;4905548;29;20040;-87
2023/09/16 02:06:46;;;;;;;986.47;887.60;;;12.30;99.90;;;;;;4894727;29;20048;-88
2023/09/16 02:09:13;;;;;;;989.92;891.13;;;12.30;99.90;;;;;;4894573;29;20510;-87
2023/09/16 02:12:14;;;;;;;954.90;862.47;;;12.30;99.90;;;;;;4894757;29;20056;-87
2023/09/16 02:15:21;;;;;;;;;;;;;;;;;;;;;
2023/09/16 02:21:23;;;;;;;1015.20;909.92;;;12.20;99.90;;;;;;4909269;29;20044;-87
2023/09/16 02:23:51;;;;;;;987.60;890.67;;;12.30;99.90;;;;;;4894315;29;20052;-87
2023/09/16 02:29:55;;;;;;;1007.60;902.20;;;12.20;99.90;;;;;;4911254;29;20063;-87
2023/09/16 02:32:21;;;;;;;1004.60;900.78;;;12.20;99.90;;;;;;4894025;29;20048;-88
2023/09/16 02:35:14;;;;;;;1006.95;901.30;;;12.20;99.90;;;;;;4894423;29;20521;-87
2023/09/16 02:37:41;;;;;;;975.30;876.22;;;12.20;99.90;;;;;;4909573;29;20114;-87
2023/09/16 02:40:10;;;;;;;979.08;879.67;;;12.10;99.90;;;;;;4910478;29;20048;-88
2023/09/16 02:43:32;;;;;;;;;;;;;;;;;;;;;
2023/09/16 02:46:41;;;;;;;1025.80;915.28;;;12.00;99.90;;;;;;4909400;29;20055;-87
2023/09/16 02:49:33;;;;;;;998.42;896.83;;;11.90;99.90;;;;;;4882010;29;20056;-87
2023/09/16 02:52:15;;;;;;;;;;;;;;;;;;;;;
2023/09/16 02:55:33;;;;;;;;;;;;;;;;;;;;;
2023/09/16 03:02:29;;;;;;;1015.67;907.70;;;11.90;99.90;;;;;;4807872;29;20042;-88
2023/09/16 03:08:57;;;;;;;1033.43;921.45;;;11.90;99.90;;;;;;4816970;29;20061;-88
2023/09/16 03:11:45;;;;;;;1011.53;906.03;;;11.80;99.90;;;;;;4889573;29;20051;-88
2023/09/16 03:14:39;;;;;;;;;;;;;;;;;;;;;
2023/09/16 03:21:07;;;;;;;1029.13;920.72;;;11.80;99.90;;;;;;4887988;29;20058;-88
2023/09/16 03:23:23;;;;;;;1034.00;922.13;;;11.70;99.90;;;;;;4889026;29;20113;-87
2023/09/16 03:29:11;;;;;;;;;;;;;;;;;;;;;
2023/09/16 03:31:52;;;;;;;1030.50;919.60;;;11.60;99.90;;;;;;4867799;29;20066;-87
2023/09/16 03:34:20;;;;;;;1008.55;902.72;;;11.60;99.90;;;;;;4878574;29;20155;-87
2023/09/16 03:40:25;;;;;;;1033.90;921.00;;;11.60;99.90;;;;;;4858964;29;20165;-88
2023/09/16 03:43:23;;;;;;;;;;;;;;;;;;;;;
2023/09/16 03:46:35;;;;;;;1151.15;968.45;;;11.70;99.90;;;;;;4892786;29;20470;-88
2023/09/16 03:49:11;;;;;;;;;;;;;;;;;;;;;
2023/09/16 03:52:18;;;;;;;;;;;;;;;;;;;;;
2023/09/16 03:55:57;;;;;;;;;;;;;;;;;;;;;
2023/09/16 03:59:04;;;;;;;1039.28;927.20;;;11.60;99.90;;;;;;4894473;29;20159;-88
2023/09/16 04:02:09;;;;;;;1023.53;914.05;;;12.20;99.90;;;;;;4863465;29;20084;-88
2023/09/16 04:04:35;;;;;;;1022.80;913.22;;;11.50;99.90;;;;;;4894621;29;20084;-88
2023/09/16 04:13:17;;;;;;;1011.35;904.03;;;11.50;99.90;;;;;;4898705;23;20147;-87
2023/09/16 04:23:35;;;;;;;;;;;;;;;;;;;;;
2023/09/16 04:26:50;;;;;;;1048.38;933.08;;;11.30;99.90;;;;;;4821495;29;20153;-87
2023/09/16 04:36:28;;;;;;;;;;;;;;;;;;;;;
2023/09/16 04:39:17;;;;;;;;;;;;;;;;;;;;;
2023/09/16 04:45:13;;;;;;;1066.60;950.08;;;11.50;99.90;;;;;;4893017;29;20516;-88
2023/09/16 04:48:17;;;;;;;1039.18;926.92;;;11.50;99.90;;;;;;4875926;29;20572;-87
2023/09/16 04:53:56;;;;;;;;;;;;;;;;;;;;;
2023/09/16 05:01:11;;;;;;;;;;;;;;;;;;;;;
2023/09/16 05:04:30;;;;;;;1099.50;961.25;;;11.40;99.90;;;;;;4763601;30;20056;-87
2023/09/16 05:07:10;;;;;;;;;;;;;;;;;;;;;
2023/09/16 05:13:29;;;;;;;;;;;;;;;;;;;;;
2023/09/16 05:16:35;;;;;;;;;;;;;;;;;;;;;
2023/09/16 05:22:03;;;;;;;1045.82;928.58;;;11.10;99.90;;;;;;4808448;29;20058;-87
2023/09/16 05:25:06;;;;;;;1120.25;953.42;;;11.10;99.90;;;;;;4864688;29;20056;-87
2023/09/16 05:28:29;;;;;;;1140.50;970.10;;;11.10;99.90;;;;;;4875941;29;20048;-87
2023/09/16 05:31:03;;;;;;;1036.50;923.60;;;11.00;99.90;;;;;;4873652;29;20317;-87
2023/09/16 05:33:57;;;;;;;1078.78;938.30;;;11.10;99.90;;;;;;4881881;29;20506;-87
2023/09/16 05:36:29;;;;;;;1087.60;946.08;;;11.10;99.90;;;;;;4810550;29;20058;-87
2023/09/16 05:39:43;;;;;;;;;;;;;;;;;;;;;
2023/09/16 05:42:34;;;;;;;1148.85;972.83;;;11.20;99.90;;;;;;4885790;29;20397;-87
2023/09/16 05:48:35;;;;;;;1050.43;935.25;;;11.30;99.90;;;;;;4878199;29;20049;-87
2023/09/16 05:51:27;;;;;;;1062.95;946.83;;;11.30;99.90;;;;;;4864933;29;20044;-87
2023/09/16 05:54:00;;;;;;;1053.60;937.67;;;11.40;99.90;;;;;;4858882;29;20055;-88
2023/09/16 05:56:30;;;;;;;1064.65;947.22;;;11.40;99.90;;;;;;4862500;29;20056;-87
2023/09/16 05:58:56;;;;;;;1038.72;928.25;;;11.40;99.90;;;;;;4864417;29;20536;-87
2023/09/16 06:07:58;;;;;;;;;;;;;;;;;;;;;
2023/09/16 06:11:03;;;;;;;1026.47;920.55;;;11.70;99.90;;;;;;4853316;29;20108;-87
2023/09/16 06:23:53;;;;;;;1055.88;943.83;;;12.10;99.90;;;;;;4908119;23;20060;-88
2023/09/16 06:26:05;;;;;;;1084.85;965.75;;;12.60;99.90;;;;;;4901497;29;20048;-87
2023/09/16 06:28:56;;;;;;;1076.65;958.67;;;12.30;99.90;;;;;;4894995;29;20047;-87
2023/09/16 06:32:33;;;;;;;;;;;;;;;;;;;;;
2023/09/16 06:36:00;;;;;;;1038.75;929.17;;;12.50;99.90;;;;;;4912916;29;20118;-88
2023/09/16 06:39:11;;;;;;;;;;;;;;;;;;;;;
2023/09/16 06:41:58;;;;;;;1006.03;902.17;;;12.90;99.90;;;;;;4899847;29;20044;-88
2023/09/16 06:45:01;;;;;;;1013.00;908.60;;;12.70;99.90;;;;;;4889896;29;20052;-87
2023/09/16 06:48:08;;;;;;;984.03;883.88;;;12.80;99.90;;;;;;4900656;29;20052;-87
2023/09/16 06:51:10;;;;;;;991.95;888.83;;;13.00;99.90;;;;;;4911563;29;20048;-88
2023/09/16 06:54:40;;;;;;;1025.03;915.63;;;13.10;99.90;;;;;;4887944;29;20472;-89
2023/09/16 07:01:09;;;;;;;1002.28;896.13;;;13.30;99.90;;;;;;4850845;29;20053;-87
2023/09/16 07:04:36;;;;;;;1033.68;921.65;;;13.50;99.90;;;;;;4895355;29;20060;-89
2023/09/16 07:07:17;;;;;;;990.33;885.72;;;13.60;99.90;;;;;;4887414;29;20072;-86
2023/09/16 07:10:30;;;;;;;984.65;882.63;;;13.70;99.90;;;;;;4896169;29;20044;-87
2023/09/16 07:12:58;;;;;;;997.10;890.15;;;13.80;99.90;;;;;;4893493;29;20048;-87
2023/09/16 07:15:41;;;;;;;1009.42;904.42;;;14.00;99.90;;;;;;4884327;29;20559;-87
2023/09/16 07:18:12;;;;;;;959.50;863.15;;;14.10;99.90;;;;;;4910084;29;20336;-87
2023/09/16 07:21:02;;;;;;;985.30;885.45;;;14.20;99.90;;;;;;4894324;29;20075;-87
2023/09/16 07:23:30;;;;;;;979.42;880.65;;;14.40;99.90;;;;;;4894672;29;20493;-87
2023/09/16 07:26:26;;;;;;;968.85;872.50;;;14.40;99.90;;;;;;4893751;29;20194;-86
2023/09/16 07:28:58;;;;;;;939.33;847.63;;;14.50;99.90;;;;;;4894329;29;20176;-87
2023/09/16 07:31:39;;;;;;;955.75;860.05;;;14.80;99.90;;;;;;4892038;29;20119;-86
2023/09/16 07:34:26;;;;;;;952.53;855.47;;;14.80;99.90;;;;;;4907152;29;20067;-87
2023/09/16 07:36:52;;;;;;;888.47;804.95;;;14.80;99.90;;;;;;4909979;29;20098;-87
2023/09/16 07:39:41;;;;;;;891.55;807.88;;;14.90;99.90;;;;;;4894031;29;20055;-87
2023/09/16 07:42:10;;;;;;;915.58;828.38;;;15.10;99.90;;;;;;4894073;29;20040;-87
2023/09/16 07:44:53;;;;;;;957.90;863.88;;;15.00;99.90;;;;;;4892544;29;20116;-87
2023/09/16 07:47:19;;;;;;;929.15;838.47;;;15.30;99.90;;;;;;4904393;29;20086;-87
2023/09/16 07:49:47;;;;;;;950.17;857.58;;;15.40;99.90;;;;;;4912679;29;20048;-87
2023/09/16 07:52:15;;;;;;;969.03;873.88;;;15.40;99.90;;;;;;4896579;29;20048;-86
2023/09/16 07:55:07;;;;;;;932.15;843.55;;;15.50;99.90;;;;;;4890516;29;20562;-87
2023/09/16 07:57:33;;;;;;;899.78;814.80;;;15.70;99.90;;;;;;4909200;29;20044;-87
2023/09/16 07:59:59;;;;;;;842.55;768.28;;;15.80;99.90;;;;;;4890929;29;20417;-87
2023/09/16 08:02:48;;;;;;;940.92;853.00;;;15.80;99.90;;;;;;4892386;29;20055;-87
2023/09/16 08:05:25;;;;;;;902.75;818.90;;;15.90;99.90;;;;;;4909809;29;20127;-87
2023/09/16 08:08:03;;;;;;;;;;;;;;;;;;;;;
2023/09/16 08:11:11;;;;;;;880.42;799.80;;;16.20;99.90;;;;;;4911344;29;20051;-86
2023/09/16 08:16:46;;;;;;;851.70;773.58;;;16.40;99.90;;;;;;4873380;29;20181;-87
2023/09/16 08:19:25;;;;;;;;;;;;;;;;;;;;;
2023/09/16 08:22:10;;;;;;;;;;;;;;;;;;;;;
2023/09/16 08:28:20;;;;;;;633.63;579.45;;;16.80;99.90;;;;;;4912307;29;20040;-86
2023/09/16 08:30:49;;;;;;;599.40;547.83;;;16.80;99.90;;;;;;4895494;29;20086;-86
2023/09/16 08:33:20;;;;;;;602.65;551.40;;;16.80;99.90;;;;;;4911798;29;20075;-86
2023/09/16 08:35:46;;;;;;;623.08;570.58;;;16.80;99.90;;;;;;4910384;29;20465;-86
2023/09/16 08:38:14;;;;;;;650.75;593.35;;;16.70;99.90;;;;;;4912717;29;20059;-86
2023/09/16 08:40:45;;;;;;;756.40;688.85;;;16.90;99.90;;;;;;4911788;29;20131;-86
2023/09/16 08:43:38;;;;;;;780.00;705.05;;;16.70;99.90;;;;;;4911913;29;20048;-87
2023/09/16 08:46:09;;;;;;;742.60;673.60;;;16.70;99.90;;;;;;4892657;29;20056;-86
2023/09/16 08:48:37;;;;;;;780.92;706.90;;;16.70;99.90;;;;;;4885780;29;20056;-86
2023/09/16 08:51:09;;;;;;;660.83;601.92;;;16.80;99.90;;;;;;4876617;29;20429;-86
2023/09/16 08:53:39;;;;;;;794.67;719.08;;;16.80;99.90;;;;;;4887300;29;20048;-86
2023/09/16 08:56:20;;;;;;;832.28;752.15;;;17.00;99.90;;;;;;4892783;29;20060;-86
2023/09/16 08:58:57;;;;;;;808.30;730.88;;;17.20;99.90;;;;;;4891501;29;20044;-86
2023/09/16 09:01:26;;;;;;;810.53;734.60;;;17.30;99.90;;;;;;4892959;29;20120;-86
2023/09/16 09:04:25;;;;;;;639.10;584.88;;;17.50;99.90;;;;;;4890180;29;20052;-86
2023/09/16 09:07:24;;;;;;;584.67;533.17;;;17.60;99.90;;;;;;4888373;29;20066;-86
2023/09/16 09:09:50;;;;;;;551.95;505.05;;;17.80;99.90;;;;;;4896054;29;20091;-86
2023/09/16 09:12:28;;;;;;;462.52;427.25;;;17.90;99.90;;;;;;4891636;29;20102;-86
2023/09/16 09:15:04;;;;;;;;;;;;;;;;;;;;;
2023/09/16 09:18:06;;;;;;;687.00;629.45;;;18.10;99.90;;;;;;4871156;29;20045;-86
2023/09/16 09:21:32;;;;;;;704.67;643.83;;;18.30;99.90;;;;;;4892890;29;20087;-87
2023/09/16 09:24:01;;;;;;;825.20;749.92;;;18.40;99.90;;;;;;4898946;29;20399;-86
2023/09/16 09:26:27;;;;;;;816.88;742.80;;;18.60;99.90;;;;;;4891753;29;20048;-86
2023/09/16 09:28:55;;;;;;;849.97;772.53;;;18.70;99.90;;;;;;4901783;29;20107;-86
2023/09/16 09:31:22;;;;;;;893.83;810.38;;;18.90;99.90;;;;;;4910938;29;20055;-86
2023/09/16 09:37:01;;;;;;;;;;;;;;;;;;;;;
2023/09/16 09:39:56;;;;;;;931.53;839.42;;;19.20;99.90;;;;;;4909681;29;20055;-86
2023/09/16 09:42:56;;;;;;;825.03;750.28;;;19.30;99.90;;;;;;4900069;29;20436;-86
2023/09/16 09:45:23;;;;;;;892.50;806.75;;;19.50;99.90;;;;;;4892506;29;20053;-86
2023/09/16 09:48:07;;;;;;;965.35;866.22;;;19.60;99.90;;;;;;4909943;29;20100;-86
2023/09/16 09:50:33;;;;;;;928.72;836.75;;;19.60;99.90;;;;;;4894371;29;20056;-85
2023/09/16 09:53:05;;;;;;;946.85;851.92;;;19.80;99.90;;;;;;4891005;29;20048;-86
2023/09/16 09:55:46;;;;;;;896.67;809.95;;;19.80;99.90;;;;;;4893506;29;20138;-87
2023/09/16 09:58:12;;;;;;;942.78;848.33;;;19.90;99.90;;;;;;4910608;29;20048;-86
2023/09/16 10:01:10;;;;;;;886.33;790.30;;;20.00;99.90;;;;;;4910182;29;20135;-86
2023/09/16 10:03:36;;;;;;;920.35;819.90;;;20.30;99.90;;;;;;4887868;29;20147;-86
2023/09/16 10:06:16;;;;;;;933.20;832.33;;;20.20;99.90;;;;;;4892040;29;20140;-86
2023/09/16 10:08:43;;;;;;;922.15;822.50;;;20.20;99.90;;;;;;4893416;29;20051;-86
2023/09/16 10:11:16;;;;;;;685.80;618.42;;;20.30;99.90;;;;;;4894482;29;20044;-87
2023/09/16 10:13:45;;;;;;;517.63;471.50;;;20.50;99.90;;;;;;4894243;29;20048;-87
2023/09/16 10:16:11;;;;;;;398.48;367.98;;;20.50;99.90;;;;;;4894015;29;20454;-87
2023/09/16 10:18:47;;;;;;;;;;;;;;;;;;;;;
2023/09/16 10:21:26;;;;;;;562.63;515.28;;;20.60;99.90;;;;;;4910357;29;20075;-87
2023/09/16 10:23:52;;;;;;;619.53;565.40;;;20.70;99.90;;;;;;4908889;23;20060;-87
2023/09/16 10:26:23;;;;;;;505.60;464.02;;;20.80;99.90;;;;;;4894568;29;20521;-86
2023/09/16 10:28:54;;;;;;;584.47;533.10;;;20.90;99.90;;;;;;4893930;29;20114;-86
2023/09/16 10:31:20;;;;;;;439.58;402.67;;;21.00;99.90;;;;;;4891468;29;20509;-86
2023/09/16 10:34:02;;;;;;;468.35;432.58;;;21.00;99.90;;;;;;4898227;29;20188;-87
2023/09/16 10:36:29;;;;;;;430.70;398.05;;;21.10;99.90;;;;;;4893623;29;20048;-88
2023/09/16 10:39:00;;;;;;;457.27;422.05;;;21.10;99.90;;;;;;4895889;29;20052;-87
2023/09/16 10:41:29;;;;;;;445.27;411.00;;;21.20;99.90;;;;;;4899350;29;20044;-87
2023/09/16 10:44:00;;;;;;;552.88;508.60;;;21.30;99.90;;;;;;4910143;29;20052;-86
2023/09/16 10:46:49;;;;;;;431.45;399.40;;;21.40;99.90;;;;;;4895474;29;20044;-86
2023/09/16 10:49:24;;;;;;;395.63;364.60;;;21.40;99.90;;;;;;4915134;29;20159;-87
2023/09/16 10:55:00;;;;;;;389.13;361.67;;;21.40;99.90;;;;;;4890675;29;20059;-88
2023/09/16 10:57:33;;;;;;;352.88;328.98;;;21.60;99.90;;;;;;4891058;29;20401;-87
2023/09/16 11:00:21;;;;;;;444.73;409.42;;;21.70;99.90;;;;;;4904302;29;20060;-87
2023/09/16 11:02:58;;;;;;;339.83;317.63;;;21.70;99.90;;;;;;4894762;29;20048;-87
2023/09/16 11:05:42;;;;;;;380.23;354.17;;;21.70;99.90;;;;;;4909897;29;20048;-87
2023/09/16 11:08:09;;;;;;;336.88;314.02;;;21.80;99.90;;;;;;4894536;29;20103;-88
2023/09/16 11:10:36;;;;;;;354.80;329.55;;;21.90;99.90;;;;;;4889988;29;20523;-86
2023/09/16 11:13:08;;;;;;;404.20;374.00;;;21.80;99.90;;;;;;4885475;29;20434;-87
2023/09/16 11:15:35;;;;;;;366.70;340.27;;;21.80;99.90;;;;;;4882349;29;20128;-87
2023/09/16 11:18:16;;;;;;;368.55;341.98;;;21.80;99.90;;;;;;4890712;29;20402;-87
2023/09/16 11:21:09;;;;;;;461.00;424.52;;;21.90;99.90;;;;;;4894188;29;20134;-87
2023/09/16 11:26:56;;;;;;;408.10;377.45;;;22.00;99.90;;;;;;4909283;29;20083;-86
2023/09/16 11:29:28;;;;;;;345.92;323.13;;;22.10;99.90;;;;;;4894831;29;20044;-87
2023/09/16 11:31:57;;;;;;;472.02;436.25;;;22.20;99.90;;;;;;4909317;29;20496;-88
2023/09/16 11:34:52;;;;;;;;;;;;;;;;;;;;;
2023/09/16 11:37:53;;;;;;;393.35;366.60;;;22.20;99.90;;;;;;4910091;29;20058;-87
2023/09/16 11:40:43;;;;;;;354.52;329.85;;;22.20;99.90;;;;;;4890863;29;20048;-87
2023/09/16 11:43:35;;;;;;;462.73;424.80;;;22.30;99.90;;;;;;4895058;29;20055;-89
2023/09/16 11:46:33;;;;;;;410.42;378.92;;;22.30;99.90;;;;;;4861432;29;20099;-88
2023/09/16 11:49:22;;;;;;;;;;;;;;;;;;;;;
2023/09/16 11:51:57;;;;;;;443.08;411.15;;;22.20;99.90;;;;;;4913576;29;20062;-88
2023/09/16 11:58:23;;;;;;;454.02;418.27;;;22.20;99.90;;;;;;4847651;29;20060;-87
2023/09/16 12:01:32;;;;;;;463.17;426.00;;;22.20;99.90;;;;;;4890169;29;20052;-89
2023/09/16 12:04:58;;;;;;;531.78;491.35;;;22.20;99.90;;;;;;4911005;29;20051;-89
2023/09/16 12:07:58;;;;;;;;;;;;;;;;;;;;;
2023/09/16 12:10:34;;;;;;;352.85;328.65;;;22.60;99.90;;;;;;4911074;29;20040;-87
2023/09/16 12:13:32;;;;;;;;;;;;;;;;;;;;;
2023/09/16 12:16:37;;;;;;;499.00;461.45;;;22.80;99.90;;;;;;4908084;29;20500;-89
2023/09/16 12:20:22;;;;;;;450.73;415.45;;;22.80;99.90;;;;;;4876205;29;20062;-88
2023/09/16 12:22:47;;;;;;;409.85;378.83;;;22.80;99.90;;;;;;4901512;29;20044;-89
2023/09/16 12:26:44;;;;;;;;;;;;;;;;;;;;;
2023/09/16 12:39:34;;;;;;;;;;;;;;;;;;;;;
2023/09/16 12:47:05;;;;;;;;;;;;;;;;;;;;;
2023/09/16 13:00:58;;;;;;;;;;;;;;;;;;;;;
2023/09/16 13:04:09;;;;;;;663.70;610.55;;;23.60;99.90;;;;;;4853927;29;20045;-90
2023/09/16 13:07:00;;;;;;;;;;;;;;;;;;;;;
2023/09/16 13:10:58;;;;;;;;;;;;;;;;;;;;;
2023/09/16 13:13:28;;;;;;;688.97;631.33;;;23.60;99.90;;;;;;4861086;29;20203;-89
2023/09/16 13:16:15;;;;;;;536.25;493.98;;;23.50;99.90;;;;;;4843277;29;20545;-88
2023/09/16 13:22:37;;;;;;;610.70;561.55;;;23.50;99.90;;;;;;4856179;29;20513;-90
2023/09/16 13:25:34;;;;;;;875.55;794.70;;;23.50;99.90;;;;;;4858327;29;20061;-88
2023/09/16 13:29:13;;;;;;;746.15;679.97;;;23.50;99.90;;;;;;4908375;23;20067;-90
2023/09/16 13:32:21;;;;;;;558.78;509.77;;;23.40;99.90;;;;;;4885708;29;20060;-89
2023/09/16 13:34:47;;;;;;;416.10;383.10;;;23.30;99.90;;;;;;4876453;29;20072;-88
2023/09/16 13:37:32;;;;;;;453.75;416.90;;;23.30;99.90;;;;;;4877855;29;20056;-90
2023/09/16 13:40:00;;;;;;;463.88;427.38;;;23.30;99.90;;;;;;4858795;29;20049;-89
2023/09/16 13:42:28;;;;;;;371.33;343.23;;;23.20;99.90;;;;;;4860017;29;20045;-89
2023/09/16 13:44:56;;;;;;;457.08;421.05;;;23.10;99.90;;;;;;4877473;29;20048;-89
2023/09/16 13:48:14;;;;;;;;;;;;;;;;;;;;;
2023/09/16 13:51:09;;;;;;;450.98;415.50;;;23.00;99.90;;;;;;4893175;29;20476;-90
2023/09/16 13:53:50;;;;;;;400.38;371.35;;;23.00;99.90;;;;;;4885154;29;20056;-89
2023/09/16 13:56:22;;;;;;;536.78;489.05;;;23.00;99.90;;;;;;4876396;29;20135;-90
2023/09/16 13:59:22;;;;;;;483.98;446.35;;;23.00;99.90;;;;;;4890948;29;20449;-87
2023/09/16 14:05:46;;;;;;;392.58;365.08;;;23.00;99.90;;;;;;4874387;29;20084;-86
2023/09/16 14:08:56;;;;;;;468.73;432.63;;;23.00;99.90;;;;;;4869502;29;20411;-86
2023/09/16 14:11:22;;;;;;;468.17;430.00;;;22.90;99.90;;;;;;4870824;29;20121;-86
2023/09/16 14:14:05;;;;;;;417.27;384.77;;;22.80;99.90;;;;;;4881994;29;20614;-85
2023/09/16 14:16:34;;;;;;;499.08;456.30;;;22.70;99.90;;;;;;4870831;29;20059;-85
2023/09/16 14:19:00;;;;;;;478.30;440.88;;;22.60;99.90;;;;;;4867639;29;20449;-86
2023/09/16 14:21:48;;;;;;;422.83;392.05;;;22.50;99.90;;;;;;4871834;29;20042;-86
2023/09/16 14:24:46;;;;;;;386.65;358.10;;;22.40;99.90;;;;;;4877887;29;20500;-88
2023/09/16 14:27:32;;;;;;;476.00;437.63;;;22.30;99.90;;;;;;4873795;29;20459;-86
2023/09/16 14:30:01;;;;;;;462.52;427.45;;;22.20;99.90;;;;;;4868909;29;20416;-86
2023/09/16 14:32:28;;;;;;;477.48;440.52;;;22.00;99.90;;;;;;4857541;29;20092;-87
2023/09/16 14:35:07;;;;;;;530.15;489.48;;;22.00;99.90;;;;;;4890601;29;20524;-86
2023/09/16 14:37:36;;;;;;;436.38;405.08;;;22.00;99.90;;;;;;4859614;29;20049;-86
2023/09/16 14:40:05;;;;;;;496.42;458.20;;;22.00;99.90;;;;;;4882336;29;20060;-87
2023/09/16 14:42:31;;;;;;;501.42;462.48;;;22.10;99.90;;;;;;4865298;29;20053;-86
2023/09/16 14:45:00;;;;;;;515.90;477.67;;;22.10;99.90;;;;;;4865205;29;20044;-87
2023/09/16 14:47:29;;;;;;;485.90;450.75;;;22.20;99.90;;;;;;4866265;29;20040;-87
2023/09/16 14:49:56;;;;;;;529.92;488.77;;;22.20;99.90;;;;;;4881449;29;20048;-87
2023/09/16 14:52:24;;;;;;;451.85;418.95;;;22.20;99.90;;;;;;4861949;29;20660;-87
2023/09/16 14:54:52;;;;;;;529.10;487.25;;;22.10;99.90;;;;;;4863211;29;20573;-89
2023/09/16 14:57:20;;;;;;;491.50;454.50;;;22.20;99.90;;;;;;4850738;29;20132;-88
2023/09/16 15:00:09;;;;;;;443.58;410.75;;;22.20;99.90;;;;;;4851844;29;20083;-89
2023/09/16 15:03:03;;;;;;;527.78;486.67;;;22.20;99.90;;;;;;4869797;29;20052;-88
2023/09/16 15:05:35;;;;;;;491.27;452.35;;;22.10;99.90;;;;;;4876014;29;20057;-87
2023/09/16 15:08:01;;;;;;;483.50;446.92;;;22.00;99.90;;;;;;4863860;29;20409;-86
2023/09/16 15:10:56;;;;;;;476.70;440.23;;;21.80;99.90;;;;;;4860902;29;20048;-88
2023/09/16 15:13:52;;;;;;;;;;;;;;;;;;;;;
2023/09/16 15:16:49;;;;;;;391.70;364.05;;;21.70;99.90;;;;;;4874653;29;20128;-87
2023/09/16 15:19:26;;;;;;;494.50;455.50;;;21.60;99.90;;;;;;4858135;29;20124;-89
2023/09/16 15:22:08;;;;;;;464.52;428.67;;;21.50;99.90;;;;;;4863066;29;20048;-86
2023/09/16 15:27:34;;;;;;;596.85;545.00;;;21.40;99.90;;;;;;4859374;29;20052;-87
2023/09/16 15:30:00;;;;;;;492.08;451.40;;;21.40;99.90;;;;;;4877266;29;20049;-86
2023/09/16 15:32:52;;;;;;;551.60;504.25;;;21.40;99.90;;;;;;4861516;29;20057;-88
2023/09/16 15:35:21;;;;;;;483.88;446.92;;;21.30;99.90;;;;;;4860823;29;20413;-86
2023/09/16 15:38:07;;;;;;;585.20;536.03;;;21.30;99.90;;;;;;4883232;29;20258;-87
2023/09/16 15:41:07;;;;;;;492.08;454.10;;;21.30;99.90;;;;;;4873528;29;20049;-87
2023/09/16 15:44:42;;;;;;;441.60;410.87;;;21.10;99.90;;;;;;4884755;29;20056;-87
2023/09/16 15:47:40;;;;;;;478.98;443.60;;;21.20;99.90;;;;;;4888592;23;20080;-89
2023/09/16 15:50:44;;;;;;;597.13;548.70;;;21.10;99.90;;;;;;4870196;29;20057;-92
2023/09/16 15:53:15;;;;;;;448.13;414.92;;;21.10;99.90;;;;;;4857938;29;20687;-89
2023/09/16 15:55:50;;;;;;;557.25;511.20;;;21.10;99.90;;;;;;4856845;29;20049;-90
2023/09/16 15:58:16;;;;;;;481.17;445.02;;;21.00;99.90;;;;;;4853597;29;20053;-88
2023/09/16 16:00:56;;;;;;;514.67;475.33;;;21.00;99.90;;;;;;4860517;29;20052;-89
2023/09/16 16:03:45;;;;;;;474.17;439.40;;;20.90;99.90;;;;;;4856809;29;20060;-90
2023/09/16 16:06:41;;;;;;;;;;;;;;;;;;;;;
2023/09/16 16:09:23;;;;;;;573.40;526.78;;;20.80;99.90;;;;;;4873277;29;20462;-89
2023/09/16 16:11:59;;;;;;;604.75;553.85;;;20.70;99.90;;;;;;4876445;29;20049;-89
2023/09/16 16:14:25;;;;;;;528.80;487.30;;;20.80;99.90;;;;;;4861084;29;20067;-89
2023/09/16 16:16:53;;;;;;;522.20;480.15;;;20.60;99.90;;;;;;4873744;29;20045;-90
2023/09/16 16:19:36;;;;;;;;;;;;;;;;;;;;;
2023/09/16 16:22:55;;;;;;;489.77;452.90;;;20.50;99.90;;;;;;4869236;29;20048;-92
2023/09/16 16:25:58;;;;;;;454.42;421.48;;;20.30;99.90;;;;;;4856948;29;20045;-94
2023/09/16 16:28:32;;;;;;;574.47;527.05;;;20.20;99.90;;;;;;4886441;29;20057;-90
2023/09/16 16:31:09;;;;;;;511.58;470.15;;;20.20;99.90;;;;;;4867243;29;20063;-89
2023/09/16 16:40:14;;;;;;;621.22;567.70;;;19.90;99.90;;;;;;4907199;23;20106;-95
2023/09/16 16:43:19;;;;;;;528.53;486.08;;;19.80;99.90;;;;;;4875804;29;20049;-96
2023/09/16 16:45:47;;;;;;;560.90;514.13;;;19.70;99.90;;;;;;4951260;23;20060;-88
2023/09/16 16:48:13;;;;;;;559.30;512.47;;;19.70;99.90;;;;;;4884523;29;20055;-87
2023/09/16 16:50:44;;;;;;;534.63;488.90;;;19.60;99.90;;;;;;4899898;29;20047;-90
2023/09/16 16:53:12;;;;;;;514.88;470.83;;;19.50;99.90;;;;;;4891351;29;20060;-86
2023/09/16 16:56:02;;;;;;;455.33;416.42;;;19.40;99.90;;;;;;4891426;29;20192;-89
2023/09/16 16:58:28;;;;;;;463.55;424.70;;;19.40;99.90;;;;;;4884032;29;20096;-88
2023/09/16 17:01:24;;;;;;;571.03;522.28;;;19.30;99.90;;;;;;4891218;29;20052;-89
2023/09/16 17:03:49;;;;;;;669.17;609.95;;;19.30;99.90;;;;;;4909246;29;20062;-89
2023/09/16 17:06:39;;;;;;;765.65;696.63;;;19.20;99.90;;;;;;4889782;29;20044;-88